Tiempo atmosférico en la estación meteorológica de Barcelona, Barcelona (25 m.)



Fecha
DESCASC
Temp. máxima en grados centígrados (hora)
DESCASC
Temp. mínima en grados centígrados (hora)
DESCASC
Temp. media en grados centígrados
DESCASC
Racha de viento máxima en m/sg (hora)
DESCASC
Velocidad máxima media en intervalos de 10 minutos(hora)
DESCASC
Precipitaciones diarias en mm
DESCASC
Precipitaciones de 00:00 a 06:00 en mm
DESCASC
Precipitaciones de 06:00 a 12:00 en mm
DESCASC
Precipitaciones de 12:00 a 18:00 en mm
DESCASC
Precipitaciones de 18:00 a 24:00 en mm
DESCASC
24-09-2020 26.3 (15:20) 19.5 (07:40) 22.9 12.78 (17:00) 7.5 (15:00) 0 0 0 0 0
23-09-2020 26.4 (17:10) 18.2 (00:00) 22.3 10.83 (18:10) 6.94 (16:30) 0 0 0 0 0
22-09-2020 25.3 (13:10) 19 (00:00) 22.1 7.78 (18:00) 6.67 (18:00) 0 0 0 0 0
21-09-2020 23.4 (00:20) 19.1 (00:00) 21.3 10.28 (12:10) 7.22 (12:40) 16.4 0 0.2 16.1 0.1
20-09-2020 26 (11:40) 21 (00:00) 23.5 10 (15:20) 8.06 (15:20) 0 0 0 0 0
19-09-2020 26.9 (14:40) 21 (00:00) 23.9 10.28 (17:40) 7.22 (17:40) 0.2 0.1 0.1 0 0
18-09-2020 27 (12:00) 21.1 (00:00) 24.1 7.78 (14:40) 5 (19:30) 2.1 0 0 2.1 0
17-09-2020 28.2 (13:00) 21.9 (00:00) 25.1 8.33 (18:20) 5.83 (14:50) 0 0 0 0 0
16-09-2020 27.2 (17:50) 21.1 (00:00) 24.2 7.5 (17:20) 5.83 (16:30) 0 0 0 0 0
15-09-2020 25.6 (11:10) 20.4 (00:00) 23 8.06 (15:00) 6.39 (14:50) 0 0 0 0 0
14-09-2020 28.4 (11:40) 20.6 (00:00) 24.5 5.28 (13:50) 3.61 (13:50) 0 0 0 0 0
13-09-2020 30.3 (12:50) 21.3 (00:00) 25.8 5 (18:00) 3.06 (18:00) 0 0 0 0 0
12-09-2020 28.3 (13:20) 21.5 (00:00) 24.9 4.72 (08:10) 3.33 (16:20) 0 0 0 0 0
11-09-2020 29.1 (11:50) 20.2 (00:00) 24.7 7.5 (14:50) 6.39 (14:40) 0 0 0 0 0
10-09-2020 25.4 (12:30) 17.7 (00:00) 21.6 8.33 (15:00) 6.94 (15:00) 0 0 0 0 0
09-09-2020 23.4 (18:00) 17.6 (00:00) 20.5 9.44 (03:40) 7.5 (16:30) 17.3 10.3 1.5 1.8 3.7
08-09-2020 25.5 (14:30) 17.3 (00:00) 21.4 14.72 (16:20) 12.5 (16:50) 0 0 0 0 0
07-09-2020 23.3 (15:10) 17 (20:10) 20.1 11.11 (19:40) 8.89 (02:30) 4.5 2.1 0.1 0 2.3
06-09-2020 27.8 (11:40) 18.5 (00:00) 23.1 12.5 (23:30) 10 (21:30) 22 0 0 0 22
05-09-2020 27 (14:40) 21 (00:00) 24 6.39 (22:00) 4.17 (16:20) 0 0 0 0 0
04-09-2020 27.5 (13:30) 20.7 (00:00) 24.1 7.22 (17:30) 5.83 (16:50) 0 0 0 0 0
03-09-2020 27 (13:50) 19.7 (00:00) 23.4 8.61 (15:20) 5.56 (15:40) 0 0 0 0 0
02-09-2020 25.6 (11:40) 19.7 (00:00) 22.7 11.11 (15:50) 7.78 (16:10) 0 0 0 0 0
01-09-2020 26.2 (14:30) 18.7 (00:00) 22.5 9.44 (23:10) 8.06 (23:10) 0 0 0 0 0
31-08-2020 24.4 (12:00) 16.8 (00:00) 20.6 12.22 (13:20) 8.33 (13:30) 0 0 0 0 0
30-08-2020 24.6 (13:00) 16.8 (00:00) 20.7 14.17 (21:20) 11.39 (21:20) 0.8 0.4 0 0 0.4
29-08-2020 24.1 (00:10) 16.8 (00:00) 20.4 12.78 (02:10) 10.56 (02:20) 15.1 11.1 2.7 0.8 0.5
28-08-2020 29 (14:00) 23.5 (00:00) 26.3 16.11 (22:00) 13.61 (22:10) 0 0 0 0 0

Gráficas

Temp. máximas Temp. mínimas Temp. medias Precipitaciones Rachas de viento máximas Velocidades máximas media en intervalos de 10 minutos

Datos horarios

Fecha y hora oficial Temperatura (ºC) Velocidad del viento (km/h) Dirección del viento Racha (km/h) Dirección de racha Precipitación (mm) Presión (hPa) Tendencia (hPa) Humedad (%)
2020-09-26 23:00:00 19.9 19 Oeste 44 Noroeste 0 -- -- 54
2020-09-26 22:00:00 19.4 14 Oeste 32 Oeste 0 -- -- 54
2020-09-26 21:00:00 19.3 18 Oeste 42 Oeste 0 -- -- 53
2020-09-26 20:00:00 20 22 Oeste 37 Oeste 0 -- -- 50
2020-09-26 19:00:00 21.9 19 Oeste 35 Sudoeste 0 -- -- 45
2020-09-26 18:00:00 20.3 21 Sudoeste 28 Sudoeste 0 -- -- 56
2020-09-26 17:00:00 19.3 21 Sudoeste 28 Sur 0 -- -- 63
2020-09-26 16:00:00 18.8 17 Sur 25 Sur 0 -- -- 57
2020-09-26 15:00:00 18.7 15 Sur 21 Sur 0 -- -- 53
2020-09-26 14:00:00 18 14 Sur 19 Sur 0 -- -- 55
2020-09-26 13:00:00 18.6 15 Sudeste 19 Sudeste 0 -- -- 55
2020-09-26 12:00:00 17 10 Sur 20 Nordeste 0 -- -- 57
2020-09-26 11:00:00 16.6 9 Norte 31 Norte 0 -- -- 57
2020-09-26 10:00:00 15.2 8 Este 30 Norte 0 -- -- 61
2020-09-26 09:00:00 13.7 11 Norte 36 Noroeste 0 -- -- 65
2020-09-26 08:00:00 13 15 Noroeste 34 Noroeste 0 -- -- 67
2020-09-26 07:00:00 13.1 16 Noroeste 39 Noroeste 0 -- -- 67
2020-09-26 06:00:00 13.2 19 Noroeste 40 Noroeste 0 -- -- 65
2020-09-26 05:00:00 13.3 18 Noroeste 39 Noroeste 0 -- -- 64
2020-09-26 04:00:00 13.4 19 Noroeste 44 Noroeste 0 -- -- 64
2020-09-26 03:00:00 13.7 21 Noroeste 40 Noroeste 0 -- -- 62
2020-09-26 02:00:00 14 15 Noroeste 38 Noroeste 0 -- -- 59
2020-09-26 01:00:00 14.5 23 Noroeste 51 Oeste 0 -- -- 56
2020-09-26 00:00:00 15.1 25 Noroeste 62 Noroeste 0 -- -- 53
2020-09-25 23:00:00 15.7 27 Noroeste 52 Oeste 0 -- -- 50
2020-09-25 22:00:00 16.6 23 Noroeste 58 Oeste 0 -- -- 45
2020-09-25 21:00:00 17.4 28 Noroeste 54 Noroeste 0 -- -- 43
2020-09-25 20:00:00 18.2 24 Noroeste 55 Noroeste 0 -- -- 42
2020-09-25 19:00:00 19.1 27 Noroeste 53 Noroeste 0 -- -- 39
2020-09-25 18:00:00 20.1 32 Noroeste 60 Noroeste 0 -- -- 37
2020-09-25 17:00:00 21.4 22 Noroeste 60 Oeste 0 -- -- 36
2020-09-25 16:00:00 21.1 23 Noroeste 56 Noroeste 0 -- -- 37
2020-09-25 15:00:00 20.7 31 Noroeste 57 Noroeste 0 -- -- 37
2020-09-25 14:00:00 20.5 29 Noroeste 57 Noroeste 0 -- -- 37
2020-09-25 13:00:00 20.3 28 Noroeste 49 Oeste 0 -- -- 39
2020-09-25 12:00:00 20 29 Noroeste 49 Noroeste 0 -- -- 40
2020-09-25 11:00:00 19.4 17 Noroeste 49 Sudoeste 0 -- -- 40
2020-09-25 10:00:00 19.6 15 Oeste 60 Oeste 0 -- -- 40
2020-09-25 09:00:00 19.1 32 Noroeste 57 Oeste 0 -- -- 42
2020-09-25 08:00:00 19.4 26 Oeste 53 Oeste 0 -- -- 43
2020-09-25 07:00:00 19.7 19 Oeste 39 Oeste 0 -- -- 46
2020-09-25 06:00:00 20.4 17 Oeste 32 Oeste 0 -- -- 46
2020-09-25 05:00:00 20.7 11 Oeste 27 Oeste 0 -- -- 47
2020-09-25 04:00:00 21.5 14 Oeste 32 Oeste 0 -- -- 45
2020-09-25 03:00:00 22.3 17 Oeste 38 Oeste 0 -- -- 46
2020-09-25 02:00:00 22.8 17 Oeste 36 Oeste 0 -- -- 48
2020-09-25 01:00:00 22.6 11 Oeste 28 Oeste 0 -- -- 59
2020-09-25 00:00:00 22.3 8 Oeste 22 Oeste 0 -- -- 66
2020-09-24 23:00:00 22.6 12 Oeste 24 Oeste 0 -- -- 68
2020-09-24 22:00:00 22.4 9 Oeste 25 Oeste 0 -- -- 74
2020-09-24 21:00:00 22.5 12 Oeste 34 Oeste 0 -- -- 74
2020-09-24 20:00:00 22.8 16 Oeste 35 Sudoeste 0 -- -- 73
2020-09-24 19:00:00 22.9 14 Oeste 33 Oeste 0 -- -- 74
2020-09-24 18:00:00 22.7 15 Sudoeste 39 Oeste 0 -- -- 80
2020-09-24 17:00:00 23.4 24 Oeste 46 Oeste 0 -- -- 76
2020-09-24 16:00:00 26.1 18 Oeste 42 Sudoeste 0 -- -- 52
2020-09-24 15:00:00 25.9 27 Sudoeste 37 Sudoeste 0 -- -- 57
2020-09-24 14:00:00 25.1 24 Sudoeste 33 Sudoeste 0 -- -- 64
2020-09-24 13:00:00 25 13 Sur 20 Sudoeste 0 -- -- 72
2020-09-24 12:00:00 25.7 7 Sudeste 14 Sudeste 0 -- -- 71
2020-09-24 11:00:00 24.3 8 Este 12 Este 0 -- -- 75
2020-09-24 10:00:00 24.1 4 Nordeste 13 Noroeste 0 -- -- 69
2020-09-24 09:00:00 21.1 9 Norte 17 Norte 0 -- -- 79
2020-09-24 08:00:00 20 10 Norte 18 Nordeste 0 -- -- 83
2020-09-24 07:00:00 19.8 9 Norte 20 Norte 0 -- -- 83
2020-09-24 06:00:00 21.7 8 Norte 11 Norte 0 -- -- 69
2020-09-24 05:00:00 22.9 4 Noroeste 18 Norte 0 -- -- 61
2020-09-24 04:00:00 23.1 10 Noroeste 18 Noroeste 0 -- -- 62
2020-09-24 03:00:00 22.1 5 Noroeste 13 Noroeste 0 -- -- 75
2020-09-24 02:00:00 22.1 0 Calma 9 Nordeste 0 -- -- 78
2020-09-24 01:00:00 23.4 6 Oeste 21 Oeste 0 -- -- 70
2020-09-24 00:00:00 23.3 6 Oeste 14 Oeste 0 -- -- 71
2020-09-23 23:00:00 23.6 5 Noroeste 18 Oeste 0 -- -- 69
2020-09-23 22:00:00 23.6 10 Oeste 22 Oeste 0 -- -- 72
2020-09-23 21:00:00 24.1 10 Oeste 32 Oeste 0 -- -- 70
2020-09-23 20:00:00 24.3 18 Oeste 34 Oeste 0 -- -- 73
2020-09-23 19:00:00 24.8 17 Sudoeste 39 Sudoeste 0 -- -- 71
2020-09-23 18:00:00 25.6 17 Sudoeste 38 Oeste 0 -- -- 66
2020-09-23 17:00:00 26.2 20 Sudoeste 32 Sudoeste 0 -- -- 66
2020-09-23 16:00:00 25.4 21 Sudoeste 30 Sudoeste 0 -- -- 70
2020-09-23 15:00:00 25.1 19 Sudoeste 29 Sudoeste 0 -- -- 74
2020-09-23 14:00:00 24.8 20 Sudoeste 26 Sudoeste 0 -- -- 74
2020-09-23 13:00:00 23.7 18 Sur 26 Sudoeste 0 -- -- 88
2020-09-23 12:00:00 24.5 9 Sur 18 Sur 0 -- -- 76
2020-09-23 11:00:00 23.8 4 Sudeste 10 Este 0 -- -- 73
2020-09-23 10:00:00 21.4 7 Norte 12 Norte 0 -- -- 79
2020-09-23 09:00:00 19.9 6 Norte 12 Norte 0 -- -- 86
2020-09-23 08:00:00 18.6 8 Norte 15 Norte 0 -- -- 90
2020-09-23 07:00:00 18.6 6 Norte 11 Norte 0 -- -- 89
2020-09-23 06:00:00 19.5 7 Norte 17 Norte 0 -- -- 89
2020-09-23 05:00:00 19.4 9 Norte 14 Norte 0 -- -- 90
2020-09-23 04:00:00 19.1 9 Norte 15 Norte 0 -- -- 91
2020-09-23 03:00:00 19.4 9 Norte 14 Norte 0 -- -- 91
2020-09-23 02:00:00 20.2 7 Norte 12 Norte 0 -- -- 90
2020-09-23 01:00:00 20.8 5 Norte 10 Norte 0 -- -- 87
2020-09-23 00:00:00 21.2 6 Norte 13 Norte 0 -- -- 85
2020-09-22 23:00:00 22.6 7 Oeste 13 Oeste 0 -- -- 74
2020-09-22 22:00:00 22.8 9 Oeste 20 Sudoeste 0 -- -- 75
2020-09-22 21:00:00 22.9 9 Sudoeste 21 Sudoeste 0 -- -- 79
2020-09-22 20:00:00 23.2 12 Sudoeste 23 Sudoeste 0 -- -- 83
2020-09-22 19:00:00 24.2 8 Sudoeste 26 Sudoeste 0 -- -- 72
2020-09-22 18:00:00 23.4 24 Sudoeste 28 Sudoeste 0 -- -- 84
2020-09-22 17:00:00 23.9 17 Sudoeste 26 Sudoeste 0 -- -- 80
2020-09-22 16:00:00 24.2 20 Sudoeste 26 Sur 0 -- -- 76
2020-09-22 15:00:00 24.3 17 Sur 26 Sudoeste 0 -- -- 79
2020-09-22 14:00:00 24.8 13 Sur 19 Sur 0 -- -- 73
2020-09-22 13:00:00 24.7 12 Sudeste 14 Sudeste 0 -- -- 78
2020-09-22 12:00:00 24.7 8 Sudeste 13 Sudeste 0 -- -- 74
2020-09-22 11:00:00 23.9 4 Este 10 Este 0 -- -- 71
2020-09-22 10:00:00 22.7 3 Nordeste 9 Noroeste 0 -- -- 76
2020-09-22 09:00:00 20.9 6 Norte 10 Norte 0 -- -- 83
2020-09-22 08:00:00 19.3 5 Norte 12 Norte 0 -- -- 89
2020-09-22 07:00:00 19.2 9 Norte 12 Norte 0 -- -- 89
2020-09-22 06:00:00 19.8 6 Norte 12 Norte 0 -- -- 89
2020-09-22 05:00:00 19.5 8 Norte 15 Norte 0 -- -- 88
2020-09-22 04:00:00 19.6 8 Norte 14 Norte 0 -- -- 89
2020-09-22 03:00:00 19.5 8 Norte 15 Norte 0 -- -- 89
2020-09-22 02:00:00 19.6 8 Norte 17 Norte 0 -- -- 88
2020-09-22 01:00:00 19.8 9 Norte 15 Norte 0 -- -- 88
2020-09-22 00:00:00 20.1 7 Norte 16 Norte 0 -- -- 87
2020-09-21 23:00:00 21 4 Norte 6 Norte 0 -- -- 86
2020-09-21 22:00:00 21.2 0 Calma 7 Norte 0 -- -- 86
2020-09-21 21:00:00 21.1 3 Nordeste 11 Este 0 -- -- 86
2020-09-21 20:00:00 21.5 7 Este 17 Este 0.1 -- -- 86
2020-09-21 19:00:00 21.7 12 Este 15 Este 0 -- -- 86
2020-09-21 18:00:00 21.7 5 Este 15 Este 0 -- -- 83
2020-09-21 17:00:00 21.8 13 Este 17 Este 0 -- -- 86
2020-09-21 16:00:00 22.3 10 Este 17 Este 0 -- -- 86
2020-09-21 15:00:00 19.6 7 Nordeste 21 Este 0.5 -- -- 93
2020-09-21 14:00:00 19.8 17 Este 23 Este 1.3 -- -- 93
2020-09-21 13:00:00 20 22 Este 37 Este 14.3 -- -- 94
2020-09-21 12:00:00 22.3 17 Este 24 Este 0 -- -- 88
2020-09-21 11:00:00 22.4 6 Nordeste 11 Nordeste 0 -- -- 88
2020-09-21 10:00:00 22 5 Norte 14 Norte 0 -- -- 84
2020-09-21 09:00:00 21.2 8 Norte 22 Norte 0 -- -- 86
2020-09-21 08:00:00 21 9 Norte 14 Norte 0.2 -- -- 86
2020-09-21 07:00:00 21.6 7 Norte 13 Noroeste 0 -- -- 81
2020-09-21 06:00:00 21.6 6 Norte 12 Norte 0 -- -- 82
2020-09-21 05:00:00 21.7 5 Norte 12 Norte 0 -- -- 82
2020-09-21 04:00:00 21.8 6 Norte 10 Norte 0 -- -- 82
2020-09-21 03:00:00 22.2 5 Norte 11 Norte 0 -- -- 78
2020-09-21 02:00:00 22.3 6 Norte 10 Norte 0 -- -- 78
2020-09-21 01:00:00 22.3 7 Norte 13 Nordeste 0 -- -- 74
2020-09-21 00:00:00 23.3 2 Oeste 11 Noroeste 0 -- -- 70
2020-09-20 23:00:00 23.5 6 Noroeste 10 Noroeste 0 -- -- 64
2020-09-20 22:00:00 24 4 Oeste 16 Sudoeste 0 -- -- 62
2020-09-20 21:00:00 24.2 8 Oeste 32 Oeste 0 -- -- 62
2020-09-20 20:00:00 24.5 15 Oeste 31 Oeste 0 -- -- 64
2020-09-20 19:00:00 25.4 18 Sudoeste 32 Sudoeste 0 -- -- 61
2020-09-20 18:00:00 26 15 Sudoeste 30 Sur 0 -- -- 58
2020-09-20 17:00:00 24.5 23 Sur 31 Sudoeste 0 -- -- 72
2020-09-20 16:00:00 25.3 22 Sudoeste 36 Sudoeste 0 -- -- 62
2020-09-20 15:00:00 25.1 26 Sudoeste 35 Sudoeste 0 -- -- 65
2020-09-20 14:00:00 24.7 22 Sudoeste 30 Sudoeste 0 -- -- 65
2020-09-20 13:00:00 24.7 20 Sudoeste 32 Oeste 0 -- -- 61
2020-09-20 12:00:00 25.5 11 Noroeste 21 Noroeste 0 -- -- 54
2020-09-20 11:00:00 25 4 Oeste 13 Noroeste 0 -- -- 56
2020-09-20 10:00:00 23.8 3 Norte 8 Noroeste 0 -- -- 60
2020-09-20 09:00:00 22.3 4 Oeste 12 Noroeste 0 -- -- 66
2020-09-20 08:00:00 21.1 8 Noroeste 12 Noroeste 0 -- -- 69
2020-09-20 07:00:00 21.1 6 Sudeste 19 Noroeste 0 -- -- 69
2020-09-20 06:00:00 21.8 6 Noroeste 22 Oeste 0 -- -- 65
2020-09-20 05:00:00 22 12 Oeste 22 Noroeste 0 -- -- 63
2020-09-20 04:00:00 22.8 13 Noroeste 24 Oeste 0 -- -- 59
2020-09-20 03:00:00 23.4 8 Oeste 22 Oeste 0 -- -- 56
2020-09-20 02:00:00 23.8 12 Oeste 21 Oeste 0 -- -- 55
2020-09-20 01:00:00 24.2 10 Noroeste 20 Oeste 0 -- -- 56
2020-09-20 00:00:00 23.9 11 Oeste 21 Oeste 0 -- -- 66
2020-09-19 23:00:00 23.7 10 Oeste 18 Oeste 0 -- -- 74
2020-09-19 22:00:00 24.1 9 Oeste 16 Oeste 0 -- -- 72
2020-09-19 21:00:00 24.2 11 Oeste 31 Oeste 0 -- -- 72
2020-09-19 20:00:00 24.4 15 Oeste 29 Oeste 0 -- -- 72
2020-09-19 19:00:00 25.2 14 Sudoeste 31 Sudoeste 0 -- -- 76
2020-09-19 18:00:00 25.6 20 Sudoeste 37 Sudoeste 0 -- -- 74
2020-09-19 17:00:00 25.8 22 Sudoeste 33 Sudoeste 0 -- -- 74
2020-09-19 16:00:00 25.3 24 Sudoeste 33 Sudoeste 0 -- -- 86
2020-09-19 15:00:00 25.9 18 Sudoeste 21 Sudoeste 0 -- -- 83
2020-09-19 14:00:00 26.7 12 Sudeste 21 Sudeste 0 -- -- 79
2020-09-19 13:00:00 26.4 11 Sudeste 18 Sur 0 -- -- 80
2020-09-19 12:00:00 26.3 6 Sudeste 9 Sudeste 0 -- -- 78
2020-09-19 11:00:00 24.7 2 Sudeste 6 Este 0 -- -- 83
2020-09-19 10:00:00 23.2 0 Calma 5 Este 0 -- -- 88
2020-09-19 09:00:00 22.7 0 Calma 15 Norte 0 -- -- 90
2020-09-19 08:00:00 21.3 3 Noroeste 14 Norte 0.1 -- -- 89
2020-09-19 07:00:00 21.1 8 Norte 12 Norte 0 -- -- 89
2020-09-19 06:00:00 21.2 7 Norte 12 Norte 0 -- -- 89
2020-09-19 05:00:00 21.6 8 Norte 10 Norte 0 -- -- 89
2020-09-19 04:00:00 21.7 7 Norte 12 Norte 0 -- -- 89
2020-09-19 03:00:00 21.9 6 Norte 11 Norte 0 -- -- 91
2020-09-19 02:00:00 22.4 4 Norte 10 Norte 0.1 -- -- 91
2020-09-19 01:00:00 23 3 Noroeste 14 Norte 0 -- -- 90
2020-09-19 00:00:00 22.8 7 Nordeste 11 Nordeste 0 -- -- 83
2020-09-18 23:00:00 23.3 6 Norte 9 Norte 0 -- -- 86
2020-09-18 22:00:00 23.7 3 Norte 15 Nordeste 0 -- -- 88
2020-09-18 21:00:00 23.8 9 Nordeste 17 Nordeste 0 -- -- 78
2020-09-18 20:00:00 24.3 14 Este 21 Este 0 -- -- 79
2020-09-18 19:00:00 24.1 18 Este 21 Este 0 -- -- 83
2020-09-18 18:00:00 24.3 6 Este 10 Este 0 -- -- 74
2020-09-18 17:00:00 25.4 7 Este 22 Norte 0 -- -- 71
2020-09-18 16:00:00 23.2 10 Norte 26 Norte 0 -- -- 76
2020-09-18 15:00:00 21.6 13 Norte 28 Noroeste 0.1 -- -- 88
2020-09-18 14:00:00 22 4 Norte 19 Noroeste 2 -- -- 88
2020-09-18 13:00:00 25.6 7 Este 10 Este 0 -- -- 84
2020-09-18 12:00:00 26.3 5 Este 9 Este 0 -- -- 70
2020-09-18 11:00:00 24.5 5 Nordeste 8 Este 0 -- -- 69
2020-09-18 10:00:00 24.1 4 Nordeste 9 Norte 0 -- -- 70
2020-09-18 09:00:00 23.3 6 Norte 10 Norte 0 -- -- 76
2020-09-18 08:00:00 22.8 6 Norte 10 Norte 0 -- -- 84
2020-09-18 07:00:00 23 3 Norte 7 Norte 0 -- -- 82
2020-09-18 06:00:00 23.2 4 Norte 6 Norte 0 -- -- 76
2020-09-18 05:00:00 23.6 0 Calma 7 Noroeste 0 -- -- 83
2020-09-18 04:00:00 23.2 0 Calma 4 Sur 0 -- -- 89
2020-09-18 03:00:00 23.9 0 Calma 8 Nordeste 0 -- -- 74
2020-09-18 02:00:00 24.4 4 Nordeste 13 Oeste 0 -- -- 77
2020-09-18 01:00:00 24.4 6 Oeste 18 Oeste 0 -- -- 89
2020-09-18 00:00:00 24.7 9 Oeste 21 Oeste 0 -- -- 90
2020-09-17 23:00:00 24.9 13 Oeste 22 Oeste 0 -- -- 89
2020-09-17 22:00:00 25.7 4 Oeste 19 Oeste 0 -- -- 67
2020-09-17 21:00:00 25.3 13 Oeste 24 Sudoeste 0 -- -- 79
2020-09-17 20:00:00 25.4 11 Sudoeste 25 Sudoeste 0 -- -- 79
2020-09-17 19:00:00 25.4 14 Sudoeste 30 Sudoeste 0 -- -- 85
2020-09-17 18:00:00 25.9 12 Sudoeste 23 Sudoeste 0 -- -- 82
2020-09-17 17:00:00 25.8 19 Sudoeste 25 Sudoeste 0 -- -- 87
2020-09-17 16:00:00 26.3 15 Sudoeste 21 Sudoeste 0 -- -- 78
2020-09-17 15:00:00 27.5 18 Sudoeste 28 Sudoeste 0 -- -- 69
2020-09-17 14:00:00 26.2 13 Sur 17 Sur 0 -- -- 79
2020-09-17 13:00:00 27.6 5 Sudeste 10 Sudoeste 0 -- -- 62
2020-09-17 12:00:00 26.7 4 Sudeste 12 Sudoeste 0 -- -- 67
2020-09-17 11:00:00 24.7 5 Sudoeste 10 Sudoeste 0 -- -- 65
2020-09-17 10:00:00 25.3 3 Nordeste 8 Nordeste 0 -- -- 64
2020-09-17 09:00:00 22.9 4 Noroeste 10 Noroeste 0 -- -- 75
2020-09-17 08:00:00 22.2 5 Norte 9 Nordeste 0 -- -- 79
2020-09-17 07:00:00 22.5 2 Sudoeste 9 Norte 0 -- -- 78
2020-09-17 06:00:00 22.5 4 Norte 7 Oeste 0 -- -- 80
2020-09-17 05:00:00 22.5 3 Noroeste 9 Norte 0 -- -- 81
2020-09-17 04:00:00 22.9 4 Norte 8 Norte 0 -- -- 82
2020-09-17 03:00:00 23.6 6 Norte 7 Norte 0 -- -- 80
2020-09-17 02:00:00 23.7 0 Calma 4 Sudoeste 0 -- -- 84
2020-09-17 01:00:00 23.9 0 Calma 6 Este 0 -- -- 88
2020-09-17 00:00:00 24.4 3 Noroeste 5 Noroeste 0 -- -- 78
2020-09-16 23:00:00 24.5 0 Calma 3 Sudeste 0 -- -- 82
2020-09-16 22:00:00 25.2 0 Calma 11 Oeste 0 -- -- 78
2020-09-16 21:00:00 25.3 7 Oeste 17 Oeste 0 -- -- 79
2020-09-16 20:00:00 25.6 7 Oeste 18 Oeste 0 -- -- 78
2020-09-16 19:00:00 26.5 10 Oeste 26 Sudoeste 0 -- -- 76
2020-09-16 18:00:00 26.8 15 Sudoeste 27 Sudoeste 0 -- -- 75
2020-09-16 17:00:00 26 19 Sudoeste 27 Sudoeste 0 -- -- 85
2020-09-16 16:00:00 25.5 17 Sudoeste 24 Sudoeste 0 -- -- 88
2020-09-16 15:00:00 25.6 20 Sudoeste 23 Sur 0 -- -- 87
2020-09-16 14:00:00 26.6 11 Sur 16 Sur 0 -- -- 83
2020-09-16 13:00:00 26.5 9 Sur 15 Sudeste 0 -- -- 79
2020-09-16 12:00:00 26.6 8 Sudeste 14 Sudeste 0 -- -- 74
2020-09-16 11:00:00 26 7 Sur 10 Sudeste 0 -- -- 75
2020-09-16 10:00:00 24.8 3 Nordeste 10 Norte 0 -- -- 78
2020-09-16 09:00:00 22.9 6 Norte 10 Norte 0 -- -- 86
2020-09-16 08:00:00 21.4 6 Norte 10 Norte 0 -- -- 91
2020-09-16 07:00:00 21.3 7 Norte 10 Norte 0 -- -- 91
2020-09-16 06:00:00 21.7 6 Norte 10 Norte 0 -- -- 91
2020-09-16 05:00:00 22.2 4 Nordeste 6 Nordeste 0 -- -- 90
2020-09-16 04:00:00 22.8 0 Calma 7 Oeste 0 -- -- 90
2020-09-16 03:00:00 23.2 4 Sudoeste 10 Oeste 0 -- -- 87
2020-09-16 02:00:00 23.7 5 Oeste 10 Oeste 0 -- -- 86
2020-09-16 01:00:00 23.9 6 Oeste 15 Oeste 0 -- -- 87
2020-09-16 00:00:00 23.9 8 Oeste 15 Oeste 0 -- -- 89
2020-09-15 23:00:00 24.3 6 Oeste 17 Oeste 0 -- -- 87
2020-09-15 22:00:00 24.4 7 Oeste 16 Oeste 0 -- -- 87
2020-09-15 21:00:00 24.4 4 Sudoeste 20 Sudoeste 0 -- -- 88
2020-09-15 20:00:00 24.6 14 Sudoeste 24 Sudoeste 0 -- -- 88
2020-09-15 19:00:00 24.9 20 Sudoeste 26 Sudoeste 0 -- -- 88
2020-09-15 18:00:00 25 21 Sudoeste 27 Sur 0 -- -- 89
2020-09-15 17:00:00 25 20 Sudoeste 27 Sudoeste 0 -- -- 90
2020-09-15 16:00:00 25 23 Sudoeste 27 Sur 0 -- -- 89
2020-09-15 15:00:00 24.6 23 Sudoeste 29 Sudoeste 0 -- -- 89
2020-09-15 14:00:00 25.1 20 Sur 27 Sudoeste 0 -- -- 86
2020-09-15 13:00:00 24.9 21 Sudoeste 25 Sudoeste 0 -- -- 86
2020-09-15 12:00:00 24.7 16 Sur 19 Sudoeste 0 -- -- 85
2020-09-15 11:00:00 25.4 8 Sudoeste 14 Sudoeste 0 -- -- 69
2020-09-15 10:00:00 22.9 10 Sudoeste 13 Sudoeste 0 -- -- 78
2020-09-15 09:00:00 23 3 Norte 10 Norte 0 -- -- 74
2020-09-15 08:00:00 20.6 7 Norte 10 Norte 0 -- -- 82
2020-09-15 07:00:00 21 3 Noroeste 7 Noroeste 0 -- -- 84
2020-09-15 06:00:00 21.3 0 Calma 8 Norte 0 -- -- 85
2020-09-15 05:00:00 21.8 0 Calma 2 Noroeste 0 -- -- 87
2020-09-15 04:00:00 22 3 Norte 9 Norte 0 -- -- 87
2020-09-15 03:00:00 21.9 7 Norte 11 Norte 0 -- -- 86
2020-09-15 02:00:00 22.8 0 Calma 7 Norte 0 -- -- 86
2020-09-15 01:00:00 23 5 Norte 8 Norte 0 -- -- 85
2020-09-15 00:00:00 23.3 0 Calma 9 Oeste 0 -- -- 92
2020-09-14 23:00:00 23.5 8 Oeste 12 Sudoeste 0 -- -- 92
2020-09-14 22:00:00 23.9 9 Sur 12 Sudoeste 0 -- -- 92
2020-09-14 21:00:00 24 0 Calma 14 Sudoeste 0 -- -- 92
2020-09-14 20:00:00 24 10 Sudoeste 15 Sudoeste 0 -- -- 92
2020-09-14 19:00:00 25 10 Sur 12 Sur 0 -- -- 90
2020-09-14 18:00:00 25.9 9 Sur 15 Sur 0 -- -- 86
2020-09-14 17:00:00 26.1 10 Sur 17 Sur 0 -- -- 86
2020-09-14 16:00:00 26.8 10 Sur 17 Sudeste 0 -- -- 82
2020-09-14 15:00:00 26.9 10 Sur 18 Sudeste 0 -- -- 80
2020-09-14 14:00:00 26.6 12 Sudeste 19 Sudeste 0 -- -- 80
2020-09-14 13:00:00 27.2 10 Sudeste 15 Sudeste 0 -- -- 68
2020-09-14 12:00:00 27.4 9 Sudeste 13 Sudeste 0 -- -- 61
2020-09-14 11:00:00 26.7 6 Norte 11 Nordeste 0 -- -- 56
2020-09-14 10:00:00 24.1 6 Norte 10 Norte 0 -- -- 66
2020-09-14 09:00:00 22.7 6 Norte 12 Norte 0 -- -- 74
2020-09-14 08:00:00 21 6 Norte 10 Norte 0 -- -- 82
2020-09-14 07:00:00 21.3 5 Norte 10 Norte 0 -- -- 81
2020-09-14 06:00:00 21.1 9 Norte 16 Norte 0 -- -- 82
2020-09-14 05:00:00 21.6 5 Norte 12 Norte 0 -- -- 82
2020-09-14 04:00:00 21.7 8 Norte 13 Norte 0 -- -- 83
2020-09-14 03:00:00 21.8 7 Norte 12 Norte 0 -- -- 84
2020-09-14 02:00:00 22.8 5 Norte 8 Norte 0 -- -- 81
2020-09-14 01:00:00 22.9 5 Norte 8 Norte 0 -- -- 81
2020-09-14 00:00:00 23.4 0 Calma 2 Sudoeste 0 -- -- 88
2020-09-13 23:00:00 23.7 3 Sur 8 Sur 0 -- -- 88
2020-09-13 22:00:00 24 4 Sur 9 Sur 0 -- -- 87
2020-09-13 21:00:00 24.1 7 Sur 9 Sur 0 -- -- 83
2020-09-13 20:00:00 24.6 6 Sudoeste 10 Sudoeste 0 -- -- 79
2020-09-13 19:00:00 25.8 8 Sur 16 Sudeste 0 -- -- 74
2020-09-13 18:00:00 26.7 11 Sur 18 Sudeste 0 -- -- 71
2020-09-13 17:00:00 27.1 10 Sur 13 Sudoeste 0 -- -- 68
2020-09-13 16:00:00 27.8 9 Sur 13 Sur 0 -- -- 66
2020-09-13 15:00:00 28.5 9 Sur 15 Sudeste 0 -- -- 57
2020-09-13 14:00:00 28.8 7 Sur 13 Sudeste 0 -- -- 52
2020-09-13 13:00:00 30 6 Sudeste 13 Sudeste 0 -- -- 47
2020-09-13 12:00:00 29.1 5 Sur 11 Sur 0 -- -- 52
2020-09-13 11:00:00 29.1 2 Nordeste 16 Norte 0 -- -- 48
2020-09-13 10:00:00 25.2 10 Norte 15 Norte 0 -- -- 58
2020-09-13 09:00:00 24.4 4 Nordeste 11 Norte 0 -- -- 62
2020-09-13 08:00:00 22.3 6 Norte 10 Norte 0 -- -- 68
2020-09-13 07:00:00 21.9 5 Norte 8 Norte 0 -- -- 69
2020-09-13 06:00:00 22 4 Noroeste 8 Norte 0 -- -- 74
2020-09-13 05:00:00 22.2 0 Calma 7 Sur 0 -- -- 76
2020-09-13 04:00:00 22.9 5 Sudoeste 12 Noroeste 0 -- -- 85
2020-09-13 03:00:00 23.5 0 Calma 5 Este 0 -- -- 68
2020-09-13 02:00:00 23.7 5 Norte 10 Norte 0 -- -- 65
2020-09-13 01:00:00 24 8 Norte 11 Norte 0 -- -- 63
2020-09-13 00:00:00 24.8 5 Norte 12 Oeste 0 -- -- 61
2020-09-12 23:00:00 25.7 9 Oeste 13 Oeste 0 -- -- 56
2020-09-12 22:00:00 25.7 6 Oeste 10 Oeste 0 -- -- 59
2020-09-12 21:00:00 25.7 4 Sudoeste 8 Sudoeste 0 -- -- 62
2020-09-12 20:00:00 26 7 Sudoeste 10 Sudoeste 0 -- -- 58
2020-09-12 19:00:00 26.5 7 Sudoeste 11 Sudoeste 0 -- -- 64
2020-09-12 18:00:00 26.6 8 Sudoeste 12 Sur 0 -- -- 78
2020-09-12 17:00:00 26.7 10 Sur 16 Sur 0 -- -- 73
2020-09-12 16:00:00 26.9 11 Sudoeste 14 Sudoeste 0 -- -- 72
2020-09-12 15:00:00 27.2 9 Sur 14 Sur 0 -- -- 68
2020-09-12 14:00:00 27.3 8 Sur 14 Sudeste 0 -- -- 66
2020-09-12 13:00:00 27.7 7 Sur 12 Sur 0 -- -- 62
2020-09-12 12:00:00 25.8 8 Sur 12 Sur 0 -- -- 74
2020-09-12 11:00:00 25.4 8 Sudoeste 11 Sur 0 -- -- 74
2020-09-12 10:00:00 26.7 2 Norte 12 Norte 0 -- -- 57
2020-09-12 09:00:00 24.2 6 Norte 17 Noroeste 0 -- -- 62
2020-09-12 08:00:00 22.4 6 Noroeste 13 Noroeste 0 -- -- 69
2020-09-12 07:00:00 21.8 0 Calma 6 Noroeste 0 -- -- 75
2020-09-12 06:00:00 21.9 3 Norte 8 Norte 0 -- -- 74
2020-09-12 05:00:00 22.4 5 Noroeste 8 Noroeste 0 -- -- 76
2020-09-12 04:00:00 22.6 4 Noroeste 8 Nordeste 0 -- -- 73
2020-09-12 03:00:00 23.9 7 Noroeste 13 Noroeste 0 -- -- 67
2020-09-12 02:00:00 23.4 0 Calma 4 Noroeste 0 -- -- 78
2020-09-12 01:00:00 23.7 3 Noroeste 5 Este 0 -- -- 76
2020-09-12 00:00:00 24.1 0 Calma 7 Este 0 -- -- 80
2020-09-11 23:00:00 24.4 5 Noroeste 10 Oeste 0 -- -- 72
2020-09-11 22:00:00 24.2 3 Sudoeste 5 Sudoeste 0 -- -- 74
2020-09-11 21:00:00 24.4 2 Sur 9 Sudeste 0 -- -- 76
2020-09-11 20:00:00 25 9 Sudeste 15 Sudeste 0 -- -- 74
2020-09-11 19:00:00 26.2 15 Sudeste 22 Sudeste 0 -- -- 69
2020-09-11 18:00:00 26.6 6 Sur 15 Sur 0 -- -- 78
2020-09-11 17:00:00 26.1 12 Sudoeste 17 Sur 0 -- -- 77
2020-09-11 16:00:00 25.9 15 Sudoeste 24 Sur 0 -- -- 75
2020-09-11 15:00:00 25.4 22 Sur 27 Sudoeste 0 -- -- 78
2020-09-11 14:00:00 26.5 14 Sur 19 Sudoeste 0 -- -- 67
2020-09-11 13:00:00 27.7 9 Sur 17 Sudoeste 0 -- -- 56
2020-09-11 12:00:00 27.2 7 Sudoeste 14 Norte 0 -- -- 57
2020-09-11 11:00:00 27.2 8 Norte 22 Norte 0 -- -- 49
2020-09-11 10:00:00 26 10 Noroeste 22 Norte 0 -- -- 52
2020-09-11 09:00:00 24.3 3 Nordeste 9 Norte 0 -- -- 62
2020-09-11 08:00:00 21.3 0 Calma 5 Oeste 0 -- -- 74
2020-09-11 07:00:00 21 0 Calma 9 Norte 0 -- -- 79
2020-09-11 06:00:00 20.3 6 Norte 9 Norte 0 -- -- 82
2020-09-11 05:00:00 21.4 3 Norte 15 Oeste 0 -- -- 74
2020-09-11 04:00:00 22 8 Oeste 13 Oeste 0 -- -- 70
2020-09-11 03:00:00 21.8 7 Noroeste 22 Este 0 -- -- 72
2020-09-11 02:00:00 22.4 3 Sudeste 12 Este 0 -- -- 71
2020-09-11 01:00:00 22.2 4 Este 6 Sudoeste 0 -- -- 74
2020-09-11 00:00:00 22.2 3 Norte 8 Norte 0 -- -- 71
2020-09-10 23:00:00 22.2 0 Calma 5 Nordeste 0 -- -- 71
2020-09-10 22:00:00 22.1 4 Nordeste 9 Norte 0 -- -- 73
2020-09-10 21:00:00 22.3 4 Norte 12 Norte 0 -- -- 78
2020-09-10 20:00:00 23.3 7 Noroeste 13 Noroeste 0 -- -- 70
2020-09-10 19:00:00 23.2 7 Oeste 22 Oeste 0 -- -- 79
2020-09-10 18:00:00 23.6 7 Sudoeste 17 Este 0 -- -- 81
2020-09-10 17:00:00 24.1 12 Sudoeste 24 Sudoeste 0 -- -- 79
2020-09-10 16:00:00 24.2 22 Sudoeste 28 Sudoeste 0 -- -- 78
2020-09-10 15:00:00 24.7 25 Sudoeste 30 Sudoeste 0 -- -- 70
2020-09-10 14:00:00 24.4 23 Sudoeste 28 Sudoeste 0 -- -- 69
2020-09-10 13:00:00 24.2 15 Sur 27 Sur 0 -- -- 73
2020-09-10 12:00:00 25 9 Sur 12 Sudeste 0 -- -- 67
2020-09-10 11:00:00 23.9 7 Sudeste 13 Sudeste 0 -- -- 72
2020-09-10 10:00:00 22.5 5 Oeste 17 Noroeste 0 -- -- 73
2020-09-10 09:00:00 20.1 9 Norte 19 Norte 0 -- -- 82
2020-09-10 08:00:00 18.4 10 Norte 16 Norte 0 -- -- 88
2020-09-10 07:00:00 18.1 9 Norte 16 Norte 0 -- -- 89
2020-09-10 06:00:00 18.1 10 Norte 18 Norte 0 -- -- 90
2020-09-10 05:00:00 18.3 9 Noroeste 14 Norte 0 -- -- 91
2020-09-10 04:00:00 18.7 9 Norte 14 Noroeste 0 -- -- 92
2020-09-10 03:00:00 18.9 10 Norte 19 Norte 0 -- -- 92
2020-09-10 02:00:00 19.1 8 Norte 13 Norte 0 -- -- 92
2020-09-10 01:00:00 19.4 8 Norte 15 Norte 0 -- -- 92
2020-09-10 00:00:00 19.5 8 Norte 16 Norte 0 -- -- 91
2020-09-09 23:00:00 19.7 8 Norte 14 Norte 0 -- -- 90
2020-09-09 22:00:00 19.8 8 Norte 15 Nordeste 1.2 -- -- 92
2020-09-09 21:00:00 19.7 6 Norte 20 Nordeste 2.5 -- -- 90
2020-09-09 20:00:00 21.7 9 Este 21 Este 0 -- -- 86
2020-09-09 19:00:00 22.3 17 Sudeste 22 Este 0 -- -- 84
2020-09-09 18:00:00 23.3 17 Este 29 Sudeste 0 -- -- 79
2020-09-09 17:00:00 22.5 26 Sudeste 32 Sudeste 0 -- -- 83
2020-09-09 16:00:00 22.4 22 Sudeste 27 Este 0 -- -- 83
2020-09-09 15:00:00 21.8 13 Sudeste 28 Sudeste 0.9 -- -- 86
2020-09-09 14:00:00 21.2 6 Norte 11 Norte 0.4 -- -- 89
2020-09-09 13:00:00 20.5 5 Norte 10 Norte 0.5 -- -- 90
2020-09-09 12:00:00 19.8 5 Norte 9 Norte 0.1 -- -- 91
2020-09-09 11:00:00 19.1 4 Noroeste 13 Sudoeste 0.9 -- -- 92
2020-09-09 10:00:00 19 9 Norte 19 Norte 0.3 -- -- 90
2020-09-09 09:00:00 18.6 10 Norte 21 Norte 0 -- -- 90
2020-09-09 08:00:00 18.5 12 Norte 20 Norte 0 -- -- 90
2020-09-09 07:00:00 18.2 8 Norte 15 Noroeste 0.2 -- -- 93
2020-09-09 06:00:00 17.7 9 Noroeste 20 Norte 5.6 -- -- 93
2020-09-09 05:00:00 18.3 8 Norte 13 Norte 2.8 -- -- 92
2020-09-09 04:00:00 19 10 Norte 34 Este 1.9 -- -- 90
2020-09-09 03:00:00 20.7 8 Norte 22 Norte 0 -- -- 72
2020-09-09 02:00:00 21 12 Norte 23 Norte 0 -- -- 66
2020-09-09 01:00:00 21.5 9 Norte 17 Norte 0 -- -- 64
2020-09-09 00:00:00 21.3 10 Norte 18 Norte 0 -- -- 65
2020-09-08 23:00:00 21.8 9 Norte 15 Norte 0 -- -- 63
2020-09-08 22:00:00 21.9 8 Norte 15 Norte 0 -- -- 63
2020-09-08 21:00:00 22 8 Norte 17 Nordeste 0 -- -- 63
2020-09-08 20:00:00 23.3 7 Norte 31 Este 0 -- -- 56
2020-09-08 19:00:00 23.1 17 Este 32 Este 0 -- -- 61
2020-09-08 18:00:00 23.2 20 Nordeste 43 Este 0 -- -- 59
2020-09-08 17:00:00 23.9 41 Este 53 Este 0 -- -- 61
2020-09-08 16:00:00 25.1 33 Este 46 Este 0 -- -- 60
2020-09-08 15:00:00 24.8 36 Este 41 Este 0 -- -- 56
2020-09-08 14:00:00 25.1 26 Este 34 Este 0 -- -- 52
2020-09-08 13:00:00 24.6 9 Este 17 Este 0 -- -- 50
2020-09-08 12:00:00 24 6 Norte 12 Norte 0 -- -- 48
2020-09-08 11:00:00 20.9 6 Norte 15 Norte 0 -- -- 58
2020-09-08 10:00:00 20.3 7 Norte 19 Norte 0 -- -- 55
2020-09-08 09:00:00 19.8 9 Norte 23 Norte 0 -- -- 56
2020-09-08 08:00:00 18.4 9 Norte 19 Norte 0 -- -- 64
2020-09-08 07:00:00 18.3 11 Norte 24 Norte 0 -- -- 64
2020-09-08 06:00:00 18.7 10 Norte 18 Noroeste 0 -- -- 62
2020-09-08 05:00:00 18.4 9 Norte 22 Norte 0 -- -- 65
2020-09-08 04:00:00 18.7 13 Norte 24 Norte 0 -- -- 63
2020-09-08 03:00:00 18.7 9 Noroeste 16 Norte 0 -- -- 69
2020-09-08 02:00:00 18.2 5 Norte 12 Noroeste 0 -- -- 73
2020-09-08 01:00:00 17.5 6 Norte 13 Norte 0 -- -- 85
2020-09-08 00:00:00 17.7 7 Norte 13 Noroeste 0 -- -- 86
2020-09-07 23:00:00 18.3 6 Noroeste 19 Oeste 0 -- -- 85
2020-09-07 22:00:00 18.6 4 Noroeste 18 Noroeste 0 -- -- 78
2020-09-07 21:00:00 18 9 Noroeste 31 Sudeste 1.1 -- -- 88
2020-09-07 20:00:00 17.7 15 Nordeste 40 Este 1.2 -- -- 90
2020-09-07 19:00:00 21.2 16 Sur 25 Sudoeste 0 -- -- 73
2020-09-07 18:00:00 21.7 18 Sur 33 Sudoeste 0 -- -- 70
2020-09-07 17:00:00 22.8 22 Sudoeste 34 Sur 0 -- -- 63
2020-09-07 16:00:00 22.3 27 Sudoeste 35 Sur 0 -- -- 65
2020-09-07 15:00:00 22.6 22 Sudoeste 31 Sudoeste 0 -- -- 61
2020-09-07 14:00:00 21.2 26 Sudoeste 33 Sur 0 -- -- 68
2020-09-07 13:00:00 22.2 10 Sudoeste 25 Oeste 0 -- -- 62
2020-09-07 12:00:00 21.6 9 Oeste 29 Oeste 0 -- -- 62
2020-09-07 11:00:00 20.5 10 Oeste 18 Oeste 0 -- -- 60
2020-09-07 10:00:00 19.1 7 Oeste 18 Noroeste 0 -- -- 61
2020-09-07 09:00:00 18.7 10 Noroeste 24 Oeste 0 -- -- 62
2020-09-07 08:00:00 18.4 9 Oeste 18 Oeste 0.1 -- -- 75
2020-09-07 07:00:00 18.9 0 Calma 19 Este 0 -- -- 84
2020-09-07 06:00:00 19.2 17 Este 31 Este 0 -- -- 78
2020-09-07 05:00:00 19.4 20 Este 37 Este 0 -- -- 82
2020-09-07 04:00:00 19.8 24 Este 35 Este 0 -- -- 82
2020-09-07 03:00:00 20 24 Este 39 Este 0 -- -- 82
2020-09-07 02:00:00 19.9 26 Este 33 Este 0.5 -- -- 87
2020-09-07 01:00:00 19.8 20 Este 36 Este 1.6 -- -- 91
2020-09-07 00:00:00 19.1 27 Este 45 Este 20.2 -- -- 94
2020-09-06 23:00:00 20.1 30 Este 39 Este 1.8 -- -- 95
2020-09-06 22:00:00 23.9 24 Sudeste 45 Sudeste 0 -- -- 88
2020-09-06 21:00:00 23.9 34 Sudeste 39 Sudeste 0 -- -- 90
2020-09-06 20:00:00 24.6 23 Sudeste 33 Sudeste 0 -- -- 88
2020-09-06 19:00:00 25.5 15 Sur 24 Sudoeste 0 -- -- 73
2020-09-06 18:00:00 25.6 17 Sur 25 Sur 0 -- -- 72
2020-09-06 17:00:00 25.5 22 Sur 26 Sur 0 -- -- 78
2020-09-06 16:00:00 26 18 Sur 26 Sur 0 -- -- 72
2020-09-06 15:00:00 26.1 21 Sudoeste 28 Sur 0 -- -- 71
2020-09-06 14:00:00 26.7 15 Sur 21 Sur 0 -- -- 71
2020-09-06 13:00:00 26.7 14 Sudeste 19 Sudeste 0 -- -- 75
2020-09-06 12:00:00 26.7 15 Este 21 Este 0 -- -- 72
2020-09-06 11:00:00 26.5 6 Norte 19 Norte 0 -- -- 65
2020-09-06 10:00:00 25.3 9 Noroeste 19 Norte 0 -- -- 66
2020-09-06 09:00:00 24.1 10 Norte 21 Norte 0 -- -- 72
2020-09-06 08:00:00 22.7 0 Calma 6 Nordeste 0 -- -- 81
2020-09-06 07:00:00 22 3 Norte 7 Nordeste 0 -- -- 82
2020-09-06 06:00:00 22.5 0 Calma 6 Noroeste 0 -- -- 80
2020-09-06 05:00:00 23.2 0 Calma 10 Sudoeste 0 -- -- 74
2020-09-06 04:00:00 23.2 6 Oeste 10 Oeste 0 -- -- 78
2020-09-06 03:00:00 23.1 0 Calma 6 Norte 0 -- -- 82
2020-09-06 02:00:00 23.2 3 Norte 7 Este 0 -- -- 82
2020-09-06 01:00:00 23.6 4 Este 5 Este 0 -- -- 81
2020-09-06 00:00:00 24.1 3 Oeste 13 Oeste 0 -- -- 77
2020-09-05 23:00:00 24.2 7 Oeste 21 Oeste 0 -- -- 79
2020-09-05 22:00:00 24.3 14 Oeste 23 Oeste 0 -- -- 79
2020-09-05 21:00:00 24.5 10 Sudoeste 19 Sudoeste 0 -- -- 79
2020-09-05 20:00:00 24.6 14 Sudoeste 18 Sudoeste 0 -- -- 78
2020-09-05 19:00:00 25.2 12 Sudoeste 18 Sur 0 -- -- 77
2020-09-05 18:00:00 25.9 13 Sur 19 Sur 0 -- -- 73
2020-09-05 17:00:00 26 14 Sur 20 Sur 0 -- -- 71
2020-09-05 16:00:00 26.8 12 Sur 19 Sudoeste 0 -- -- 74
2020-09-05 15:00:00 26.4 14 Sur 19 Sur 0 -- -- 74
2020-09-05 14:00:00 26.6 13 Sur 19 Sur 0 -- -- 76
2020-09-05 13:00:00 26.5 12 Sur 17 Sur 0 -- -- 75
2020-09-05 12:00:00 26.5 10 Sudeste 15 Sudeste 0 -- -- 75
2020-09-05 11:00:00 25.8 9 Este 16 Este 0 -- -- 75
2020-09-05 10:00:00 24.3 6 Nordeste 12 Norte 0 -- -- 79
2020-09-05 09:00:00 22.5 7 Norte 13 Noroeste 0 -- -- 86
2020-09-05 08:00:00 21.1 8 Norte 13 Norte 0 -- -- 90
2020-09-05 07:00:00 21.5 5 Norte 13 Norte 0 -- -- 91
2020-09-05 06:00:00 21.7 6 Norte 12 Norte 0 -- -- 91
2020-09-05 05:00:00 22 5 Norte 10 Norte 0 -- -- 91
2020-09-05 04:00:00 22.3 6 Norte 9 Norte 0 -- -- 90
2020-09-05 03:00:00 23.3 2 Norte 9 Oeste 0 -- -- 86
2020-09-05 02:00:00 23.6 6 Oeste 9 Oeste 0 -- -- 84
2020-09-05 01:00:00 24 4 Oeste 11 Oeste 0 -- -- 84
2020-09-05 00:00:00 24.1 6 Oeste 12 Oeste 0 -- -- 84
2020-09-04 23:00:00 24.2 6 Oeste 15 Sudoeste 0 -- -- 84
2020-09-04 22:00:00 24.4 10 Sudoeste 16 Sudoeste 0 -- -- 84
2020-09-04 21:00:00 24.5 12 Sudoeste 19 Sudoeste 0 -- -- 82
2020-09-04 20:00:00 25.1 17 Sudoeste 22 Sur 0 -- -- 82
2020-09-04 19:00:00 25.4 17 Sur 23 Sur 0 -- -- 78
2020-09-04 18:00:00 25.1 19 Sur 26 Sur 0 -- -- 86
2020-09-04 17:00:00 25.6 20 Sur 25 Sudoeste 0 -- -- 83
2020-09-04 16:00:00 25.8 18 Sur 23 Sur 0 -- -- 81
2020-09-04 15:00:00 27 10 Sur 18 Sudeste 0 -- -- 74
2020-09-04 14:00:00 27.4 11 Sudeste 18 Sudeste 0 -- -- 70
2020-09-04 13:00:00 27.2 10 Sur 17 Sudeste 0 -- -- 71
2020-09-04 12:00:00 26.5 11 Sudeste 14 Sudeste 0 -- -- 71
2020-09-04 11:00:00 25.6 11 Este 15 Este 0 -- -- 74
2020-09-04 10:00:00 25.6 4 Norte 10 Este 0 -- -- 70
2020-09-04 09:00:00 23.2 5 Norte 14 Norte 0 -- -- 79
2020-09-04 08:00:00 21.3 7 Norte 12 Norte 0 -- -- 84
2020-09-04 07:00:00 20.8 6 Norte 11 Nordeste 0 -- -- 89
2020-09-04 06:00:00 21.3 4 Norte 15 Noroeste 0 -- -- 88
2020-09-04 05:00:00 22.8 8 Noroeste 14 Noroeste 0 -- -- 82
2020-09-04 04:00:00 22.7 7 Oeste 12 Oeste 0 -- -- 86
2020-09-04 03:00:00 22.6 4 Noroeste 11 Norte 0 -- -- 86
2020-09-04 02:00:00 22.3 6 Norte 11 Norte 0 -- -- 86
2020-09-04 01:00:00 22.8 6 Norte 12 Norte 0 -- -- 85
2020-09-04 00:00:00 23.5 7 Norte 10 Norte 0 -- -- 81
2020-09-03 23:00:00 24.1 4 Norte 13 Oeste 0 -- -- 79
2020-09-03 22:00:00 24.3 4 Sudoeste 17 Sudoeste 0 -- -- 78
2020-09-03 21:00:00 24.5 10 Oeste 19 Sudoeste 0 -- -- 76
2020-09-03 20:00:00 24.5 15 Sudoeste 55 Sur 0 -- -- 79
2020-09-03 19:00:00 25 14 Sur 24 Sur 0 -- -- 79
2020-09-03 18:00:00 25.1 16 Sur 24 Sur 0 -- -- 74
2020-09-03 17:00:00 25.7 18 Sur 27 Sur 0 -- -- 70
2020-09-03 16:00:00 25.6 19 Sur 31 Sur 0 -- -- 68
2020-09-03 15:00:00 26 17 Sur 26 Sur 0 -- -- 68
2020-09-03 14:00:00 25.9 15 Sur 23 Sudeste 0 -- -- 71
2020-09-03 13:00:00 26.3 14 Sudeste 23 Sudeste 0 -- -- 69
2020-09-03 12:00:00 26.3 14 Sudeste 18 Sudeste 0 -- -- 70
2020-09-03 11:00:00 25.5 10 Este 13 Este 0 -- -- 75
2020-09-03 10:00:00 24 6 Norte 15 Norte 0 -- -- 75
2020-09-03 09:00:00 22.6 9 Norte 14 Norte 0 -- -- 78
2020-09-03 08:00:00 20.2 10 Norte 15 Norte 0 -- -- 86
2020-09-03 07:00:00 20.3 9 Norte 15 Norte 0 -- -- 86
2020-09-03 06:00:00 20.7 9 Norte 14 Norte 0 -- -- 84
2020-09-03 05:00:00 21.2 8 Norte 13 Norte 0 -- -- 82
2020-09-03 04:00:00 21.4 7 Norte 14 Norte 0 -- -- 81
2020-09-03 03:00:00 21.5 6 Norte 12 Norte 0 -- -- 80
2020-09-03 02:00:00 22.3 5 Norte 9 Norte 0 -- -- 76
2020-09-03 01:00:00 22.6 5 Norte 9 Nordeste 0 -- -- 74
2020-09-03 00:00:00 23.1 2 Norte 9 Noroeste 0 -- -- 71
2020-09-02 23:00:00 23.6 5 Oeste 13 Oeste 0 -- -- 70
2020-09-02 22:00:00 23.6 7 Oeste 17 Sudoeste 0 -- -- 69
2020-09-02 21:00:00 23.7 9 Oeste 31 Sudoeste 0 -- -- 68
2020-09-02 20:00:00 24.1 17 Sudoeste 32 Sudoeste 0 -- -- 68
2020-09-02 19:00:00 24.3 19 Sudoeste 35 Sudoeste 0 -- -- 70
2020-09-02 18:00:00 24 23 Sudoeste 38 Sudoeste 0 -- -- 68
2020-09-02 17:00:00 24.2 27 Sudoeste 37 Sudoeste 0 -- -- 70
2020-09-02 16:00:00 24.3 27 Sudoeste 40 Sudoeste 0 -- -- 70
2020-09-02 15:00:00 24.1 26 Sudoeste 38 Sur 0 -- -- 67
2020-09-02 14:00:00 24.8 23 Sudoeste 31 Sudoeste 0 -- -- 64
2020-09-02 13:00:00 24.3 20 Sudoeste 27 Sudoeste 0 -- -- 68
2020-09-02 12:00:00 24.5 15 Sur 22 Sur 0 -- -- 63
2020-09-02 11:00:00 24.9 10 Sur 17 Sur 0 -- -- 63
2020-09-02 10:00:00 23.6 3 Sudoeste 10 Norte 0 -- -- 66
2020-09-02 09:00:00 22.3 5 Norte 13 Norte 0 -- -- 72
2020-09-02 08:00:00 20.2 6 Norte 14 Norte 0 -- -- 77
2020-09-02 07:00:00 20 8 Norte 12 Norte 0 -- -- 77
2020-09-02 06:00:00 20.2 6 Norte 12 Norte 0 -- -- 77
2020-09-02 05:00:00 20 8 Norte 12 Norte 0 -- -- 81
2020-09-02 04:00:00 20.2 8 Norte 17 Sur 0 -- -- 81
2020-09-02 03:00:00 21.4 9 Sudeste 26 Sudeste 0 -- -- 76
2020-09-02 02:00:00 21.4 9 Este 18 Sudeste 0 -- -- 78
2020-09-02 01:00:00 21.3 14 Sudeste 30 Este 0 -- -- 79
2020-09-02 00:00:00 21 14 Nordeste 34 Este 0 -- -- 88
2020-09-01 23:00:00 22 15 Nordeste 33 Este 0 -- -- 70
2020-09-01 22:00:00 22.1 8 Norte 18 Norte 0 -- -- 73
2020-09-01 21:00:00 23 5 Norte 12 Sudoeste 0 -- -- 76
2020-09-01 20:00:00 24 9 Sudoeste 17 Sur 0 -- -- 72
2020-09-01 19:00:00 23.9 12 Sur 24 Sudoeste 0 -- -- 74
2020-09-01 18:00:00 24 14 Sur 24 Sudoeste 0 -- -- 73
2020-09-01 17:00:00 24.3 17 Sur 22 Sur 0 -- -- 70
2020-09-01 16:00:00 25.1 13 Sur 22 Sudeste 0 -- -- 69
2020-09-01 15:00:00 25.5 12 Sudeste 23 Sudeste 0 -- -- 65
2020-09-01 14:00:00 25.6 12 Sudeste 20 Este 0 -- -- 66
2020-09-01 13:00:00 25.3 14 Sudeste 21 Sudeste 0 -- -- 70
2020-09-01 12:00:00 25.4 13 Sudeste 20 Sudeste 0 -- -- 67
2020-09-01 11:00:00 25.2 6 Este 12 Este 0 -- -- 61
2020-09-01 10:00:00 23.1 6 Norte 13 Nordeste 0 -- -- 62
2020-09-01 09:00:00 21.3 7 Norte 15 Norte 0 -- -- 68
2020-09-01 08:00:00 19.2 9 Norte 17 Norte 0 -- -- 74
2020-09-01 07:00:00 18.9 10 Norte 15 Norte 0 -- -- 74
2020-09-01 06:00:00 19.3 8 Norte 15 Norte 0 -- -- 73
2020-09-01 05:00:00 19.7 9 Norte 14 Norte 0 -- -- 70
2020-09-01 04:00:00 20.2 9 Norte 15 Norte 0 -- -- 69
2020-09-01 03:00:00 20.4 6 Norte 14 Norte 0 -- -- 68
2020-09-01 02:00:00 21.2 6 Noroeste 14 Noroeste 0 -- -- 65
2020-09-01 01:00:00 21.4 4 Norte 10 Norte 0 -- -- 64
2020-09-01 00:00:00 21.6 5 Norte 10 Nordeste 0 -- -- 61
2020-08-31 23:00:00 22.2 4 Noroeste 15 Noroeste 0 -- -- 61
2020-08-31 22:00:00 22.4 6 Oeste 31 Oeste 0 -- -- 60
2020-08-31 21:00:00 23 16 Oeste 37 Oeste 0 -- -- 56
2020-08-31 20:00:00 23.6 16 Sudoeste 37 Sudoeste 0 -- -- 54
2020-08-31 19:00:00 23.8 22 Sudoeste 37 Sudoeste 0 -- -- 56
2020-08-31 18:00:00 24.1 23 Sudoeste 36 Sudoeste 0 -- -- 54
2020-08-31 17:00:00 23.3 27 Sudoeste 36 Sudoeste 0 -- -- 60
2020-08-31 16:00:00 23.6 28 Sudoeste 40 Sudoeste 0 -- -- 55
2020-08-31 15:00:00 24.1 22 Sudoeste 42 Sudoeste 0 -- -- 57
2020-08-31 14:00:00 23.5 29 Sudoeste 44 Sudoeste 0 -- -- 59
2020-08-31 13:00:00 23.5 25 Sudoeste 36 Sudoeste 0 -- -- 54
2020-08-31 12:00:00 23.8 7 Sudoeste 21 Nordeste 0 -- -- 49
2020-08-31 11:00:00 21.8 5 Norte 23 Norte 0 -- -- 50
2020-08-31 10:00:00 20 13 Noroeste 24 Noroeste 0 -- -- 53
2020-08-31 09:00:00 18.8 9 Norte 19 Noroeste 0 -- -- 60
2020-08-31 08:00:00 18.2 6 Noroeste 17 Oeste 0 -- -- 64
2020-08-31 07:00:00 17.3 8 Norte 14 Norte 0 -- -- 72
2020-08-31 06:00:00 17.3 8 Norte 15 Noroeste 0 -- -- 74
2020-08-31 05:00:00 17 9 Norte 15 Norte 0 -- -- 82
2020-08-31 04:00:00 17.8 8 Noroeste 18 Norte 0 -- -- 76
2020-08-31 03:00:00 17.3 12 Norte 19 Norte 0 -- -- 84
2020-08-31 02:00:00 18.4 5 Oeste 17 Oeste 0 -- -- 74
2020-08-31 01:00:00 17.7 4 Norte 23 Nordeste 0 -- -- 80
2020-08-31 00:00:00 17.3 10 Nordeste 20 Norte 0 -- -- 85
2020-08-30 23:00:00 17.4 7 Nordeste 26 Este 0.4 -- -- 86
2020-08-30 22:00:00 18.6 22 Este 51 Este 0 -- -- 85
2020-08-30 21:00:00 20.8 18 Sudeste 41 Este 0 -- -- 75
2020-08-30 20:00:00 22.4 15 Sur 21 Sur 0 -- -- 73
2020-08-30 19:00:00 23.2 10 Sudoeste 17 Sur 0 -- -- 66
2020-08-30 18:00:00 23.2 14 Sur 25 Sur 0 -- -- 68
2020-08-30 17:00:00 23.1 17 Sur 24 Sur 0 -- -- 69
2020-08-30 16:00:00 23.7 15 Sur 23 Sudeste 0 -- -- 65
2020-08-30 15:00:00 24 13 Sur 23 Sudeste 0 -- -- 61
2020-08-30 14:00:00 23.8 14 Sur 23 Sudeste 0 -- -- 60
2020-08-30 13:00:00 23.9 10 Sur 18 Sudeste 0 -- -- 57
2020-08-30 12:00:00 23.7 12 Sudeste 18 Oeste 0 -- -- 54
2020-08-30 11:00:00 22.6 6 Norte 20 Norte 0 -- -- 56
2020-08-30 10:00:00 20.3 6 Norte 15 Norte 0 -- -- 61
2020-08-30 09:00:00 19.5 6 Norte 14 Norte 0 -- -- 63
2020-08-30 08:00:00 18.2 8 Norte 17 Noroeste 0 -- -- 67
2020-08-30 07:00:00 17.5 10 Norte 17 Noroeste 0 -- -- 70
2020-08-30 06:00:00 17.3 10 Norte 25 Noroeste 0 -- -- 71
2020-08-30 05:00:00 17.5 12 Norte 37 Norte 0 -- -- 74
2020-08-30 04:00:00 17 5 Norte 18 Norte 0 -- -- 82
2020-08-30 03:00:00 17.4 12 Norte 35 Norte 0.4 -- -- 85
2020-08-30 02:00:00 18.5 10 Norte 19 Norte 0 -- -- 88
2020-08-30 01:00:00 19.1 8 Norte 10 Norte 0 -- -- 85
2020-08-30 00:00:00 19.5 3 Oeste 8 Noroeste 0 -- -- 82
2020-08-29 23:00:00 19 6 Norte 10 Norte 0 -- -- 85
2020-08-29 22:00:00 19.1 6 Norte 16 Norte 0 -- -- 85
2020-08-29 21:00:00 19.5 0 Calma 12 Este 0 -- -- 80
2020-08-29 20:00:00 19.9 7 Este 28 Sudeste 0 -- -- 75
2020-08-29 19:00:00 19.1 10 Sudeste 24 Sur 0.5 -- -- 80
2020-08-29 18:00:00 19.4 12 Sur 25 Sudeste 0.8 -- -- 81
2020-08-29 17:00:00 21.4 14 Sudeste 32 Sudeste 0 -- -- 66
2020-08-29 16:00:00 22.3 21 Sudeste 27 Sudeste 0 -- -- 66
2020-08-29 15:00:00 22.6 9 Sudeste 21 Sudeste 0 -- -- 68
2020-08-29 14:00:00 21.3 17 Este 22 Este 0 -- -- 72
2020-08-29 13:00:00 19.6 5 Nordeste 18 Noroeste 0 -- -- 83
2020-08-29 12:00:00 18.9 9 Nordeste 19 Nordeste 0 -- -- 85
2020-08-29 11:00:00 18.4 8 Norte 18 Noroeste 0.1 -- -- 91
2020-08-29 10:00:00 17.7 6 Norte 23 Norte 0.1 -- -- 93
2020-08-29 09:00:00 17.1 13 Norte 24 Norte 0.4 -- -- 94
2020-08-29 08:00:00 17.7 7 Norte 14 Norte 0.2 -- -- 93
2020-08-29 07:00:00 18.2 5 Sudoeste 19 Norte 1.9 -- -- 92
2020-08-29 06:00:00 17.2 6 Oeste 23 Norte 5.3 -- -- 93
2020-08-29 05:00:00 17.9 12 Norte 21 Norte 3.5 -- -- 93
2020-08-29 04:00:00 19.3 8 Norte 43 Este 0.6 -- -- 93
2020-08-29 03:00:00 19.7 11 Nordeste 46 Este 1.4 -- -- 94
2020-08-29 02:00:00 21.9 36 Este 43 Este 0.3 -- -- 88
2020-08-29 01:00:00 23.4 31 Este 40 Este 0 -- -- 74
2020-08-29 00:00:00 23.9 32 Este 48 Este 0 -- -- 69
2020-08-28 23:00:00 24 34 Este 56 Este 0 -- -- 75
2020-08-28 22:00:00 24.5 47 Este 58 Este 0 -- -- 82
2020-08-28 21:00:00 24.6 39 Este 54 Sudeste 0 -- -- 88
2020-08-28 20:00:00 26.5 28 Sudeste 34 Sudeste 0 -- -- 87
2020-08-28 19:00:00 27 13 Sur 23 Sur 0 -- -- 85
2020-08-28 18:00:00 27.5 19 Sudoeste 27 Sudoeste 0 -- -- 83
2020-08-28 17:00:00 27 22 Sur 28 Sur 0 -- -- 87
2020-08-28 16:00:00 27.4 24 Sudoeste 29 Sudoeste 0 -- -- 82
2020-08-28 15:00:00 27.8 22 Sur 27 Sur 0 -- -- 79
2020-08-28 14:00:00 28.8 13 Sur 20 Sur 0 -- -- 77
2020-08-28 13:00:00 28.5 14 Sur 20 Sur 0 -- -- 79
2020-08-28 12:00:00 28.2 12 Sur 17 Sur 0 -- -- 81
2020-08-28 11:00:00 28.3 8 Sur 13 Sudeste 0 -- -- 81
2020-08-28 10:00:00 27.1 4 Este 10 Nordeste 0 -- -- 86
2020-08-28 09:00:00 26.1 6 Norte 9 Norte 0 -- -- 87
2020-08-28 08:00:00 24.9 5 Norte 9 Norte 0 -- -- 91
2020-08-28 07:00:00 24.5 5 Norte 8 Norte 0 -- -- 91
2020-08-28 06:00:00 24.9 4 Norte 7 Norte 0 -- -- 91
2020-08-28 05:00:00 24.9 0 Calma 8 Norte 0 -- -- 91
2020-08-28 04:00:00 25.2 4 Norte 9 Norte 0 -- -- 90
2020-08-28 03:00:00 25.6 5 Nordeste 8 Nordeste 0 -- -- 90
2020-08-28 02:00:00 25.9 5 Sudoeste 9 Sudoeste 0 -- -- 90
2020-08-28 01:00:00 25.8 4 Sudoeste 8 Sudoeste 0 -- -- 90
2020-08-28 00:00:00 26 3 Sudoeste 11 Sudoeste 0 -- -- 90